X  Tanca Dades meteorològiques de l'aviació METAR     EHKD De Kooy Airport
Temperatura
14°C Temperatura
12°C Rosada
88% Humitat



Vent
8 KM/H
5 MPH
2 M/S
4 NUS



250°
OSO
Condicions actuals

Parcialment ennuvolat Parcialment ennuvolat
Pressió 1004.06 (hPa) - 29.65 (inHg)
Visibilitat 6 (milla) - 9.7 (km)
Aeroport
Codi aeroport EHKD

Ubicació: De Kooy Airport
Distància: 34 (km)

Metar:
EHKD 300535Z AUTO 25004KT 220V280 9999 FEW009 OVC089 14/12 Q1004 BLU TEMPO FEW008 SCT012

Temps: 30-05-2024 07:35 CEST